sensor_id;sensor_type;location;lat;lon;timestamp;pressure;altitude;pressure_sealevel;temperature;humidity
54308;BME280;40208;39.778;2.710;2022-09-27T00:00:26;101069.44;;;18.52;100.00
54308;BME280;40208;39.778;2.710;2022-09-27T00:03:11;101029.22;;;18.27;100.00
54308;BME280;40208;39.778;2.710;2022-09-27T00:08:49;101069.94;;;18.57;100.00
54308;BME280;40208;39.778;2.710;2022-09-27T00:11:38;101065.78;;;18.53;100.00
54308;BME280;40208;39.778;2.710;2022-09-27T00:14:23;101075.31;;;18.57;100.00
54308;BME280;40208;39.778;2.710;2022-09-27T00:17:09;101077.25;;;18.55;100.00
54308;BME280;40208;39.778;2.710;2022-09-27T00:19:54;101061.53;;;18.62;100.00
54308;BME280;40208;39.778;2.710;2022-09-27T00:22:42;101060.69;;;18.61;100.00
54308;BME280;40208;39.778;2.710;2022-09-27T00:25:27;101067.56;;;18.65;100.00
54308;BME280;40208;39.778;2.710;2022-09-27T00:28:11;101065.97;;;18.63;100.00
54308;BME280;40208;39.778;2.710;2022-09-27T00:30:57;101061.94;;;18.69;100.00
54308;BME280;40208;39.778;2.710;2022-09-27T00:33:43;101066.81;;;18.63;100.00
54308;BME280;40208;39.778;2.710;2022-09-27T00:36:29;101062.69;;;18.71;100.00
54308;BME280;40208;39.778;2.710;2022-09-27T00:39:15;101041.69;;;18.76;100.00
54308;BME280;40208;39.778;2.710;2022-09-27T00:42:00;101052.22;;;18.79;100.00
54308;BME280;40208;39.778;2.710;2022-09-27T00:45:03;101046.84;;;18.79;100.00
54308;BME280;40208;39.778;2.710;2022-09-27T00:50:40;101045.56;;;18.96;100.00
54308;BME280;40208;39.778;2.710;2022-09-27T00:53:30;101020.84;;;18.79;100.00
54308;BME280;40208;39.778;2.710;2022-09-27T00:56:21;101026.75;;;18.96;100.00
54308;BME280;40208;39.778;2.710;2022-09-27T00:59:13;101047.16;;;19.22;100.00
54308;BME280;40208;39.778;2.710;2022-09-27T01:02:03;101028.06;;;19.25;100.00
54308;BME280;40208;39.778;2.710;2022-09-27T01:04:49;101021.97;;;19.35;100.00
54308;BME280;40208;39.778;2.710;2022-09-27T01:07:39;101013.16;;;19.44;100.00
54308;BME280;40208;39.778;2.710;2022-09-27T01:10:24;101005.47;;;19.51;100.00
54308;BME280;40208;39.778;2.710;2022-09-27T01:13:18;101003.16;;;19.68;100.00
54308;BME280;40208;39.778;2.710;2022-09-27T01:22:29;101003.63;;;20.07;100.00
54308;BME280;40208;39.778;2.710;2022-09-27T01:37:20;100964.81;;;20.31;100.00
54308;BME280;40208;39.778;2.710;2022-09-27T01:40:41;100955.75;;;20.43;100.00
54308;BME280;40208;39.778;2.710;2022-09-27T01:43:40;100945.25;;;20.61;100.00
54308;BME280;40208;39.778;2.710;2022-09-27T01:49:25;100825.31;;;20.02;100.00
54308;BME280;40208;39.778;2.710;2022-09-27T01:52:15;100943.47;;;20.71;100.00
54308;BME280;40208;39.778;2.710;2022-09-27T01:55:05;100948.03;;;20.71;100.00
54308;BME280;40208;39.778;2.710;2022-09-27T01:57:58;100818.94;;;20.03;100.00
54308;BME280;40208;39.778;2.710;2022-09-27T02:00:47;100948.16;;;20.90;100.00
54308;BME280;40208;39.778;2.710;2022-09-27T02:03:35;100948.56;;;20.86;100.00
54308;BME280;40208;39.778;2.710;2022-09-27T02:06:25;100935.31;;;20.83;100.00
54308;BME280;40208;39.778;2.710;2022-09-27T02:09:34;100952.44;;;20.93;100.00
54308;BME280;40208;39.778;2.710;2022-09-27T02:12:24;100938.25;;;20.91;100.00
54308;BME280;40208;39.778;2.710;2022-09-27T02:15:12;100949.38;;;20.98;100.00
54308;BME280;40208;39.778;2.710;2022-09-27T02:18:00;100945.00;;;21.06;100.00
54308;BME280;40208;39.778;2.710;2022-09-27T02:20:53;100928.34;;;21.01;100.00
54308;BME280;40208;39.778;2.710;2022-09-27T02:23:43;100932.09;;;21.10;100.00
54308;BME280;40208;39.778;2.710;2022-09-27T02:26:38;100941.97;;;21.00;100.00
54308;BME280;40208;39.778;2.710;2022-09-27T02:29:56;100929.19;;;21.02;100.00
54308;BME280;40208;39.778;2.710;2022-09-27T02:32:38;100929.81;;;21.05;100.00
54308;BME280;40208;39.778;2.710;2022-09-27T02:35:27;100927.81;;;21.07;100.00
54308;BME280;40208;39.778;2.710;2022-09-27T02:38:13;100913.06;;;21.11;100.00
54308;BME280;40208;39.778;2.710;2022-09-27T02:40:59;100904.78;;;21.03;100.00
54308;BME280;40208;39.778;2.710;2022-09-27T02:43:46;100914.06;;;21.10;100.00
54308;BME280;40208;39.778;2.710;2022-09-27T02:53:12;100908.66;;;21.10;100.00
54308;BME280;40208;39.778;2.710;2022-09-27T02:59:33;100782.47;;;20.41;100.00
54308;BME280;40208;39.778;2.710;2022-09-27T03:05:19;100867.69;;;20.95;100.00
54308;BME280;40208;39.778;2.710;2022-09-27T03:08:06;100901.72;;;21.17;100.00
54308;BME280;40208;39.778;2.710;2022-09-27T03:10:51;100888.69;;;21.23;100.00
54308;BME280;40208;39.778;2.710;2022-09-27T03:13:36;100902.00;;;21.14;100.00
54308;BME280;40208;39.778;2.710;2022-09-27T03:16:22;100898.03;;;21.18;100.00
54308;BME280;40208;39.778;2.710;2022-09-27T03:19:08;100784.78;;;20.46;100.00
54308;BME280;40208;39.778;2.710;2022-09-27T03:21:53;100896.66;;;21.24;100.00
54308;BME280;40208;39.778;2.710;2022-09-27T03:24:38;100899.31;;;21.14;100.00
54308;BME280;40208;39.778;2.710;2022-09-27T03:27:23;100888.09;;;21.19;100.00
54308;BME280;40208;39.778;2.710;2022-09-27T03:30:11;100763.28;;;20.34;100.00
54308;BME280;40208;39.778;2.710;2022-09-27T03:32:56;100889.66;;;21.12;100.00
54308;BME280;40208;39.778;2.710;2022-09-27T03:35:41;100884.09;;;21.13;100.00
54308;BME280;40208;39.778;2.710;2022-09-27T03:38:26;100884.94;;;21.14;100.00
54308;BME280;40208;39.778;2.710;2022-09-27T03:41:11;100856.69;;;20.87;100.00
54308;BME280;40208;39.778;2.710;2022-09-27T03:43:56;100886.41;;;20.97;100.00
54308;BME280;40208;39.778;2.710;2022-09-27T03:46:43;100877.59;;;20.95;100.00
54308;BME280;40208;39.778;2.710;2022-09-27T03:49:27;100876.19;;;20.91;100.00
54308;BME280;40208;39.778;2.710;2022-09-27T03:52:13;100857.88;;;20.73;100.00
54308;BME280;40208;39.778;2.710;2022-09-27T03:54:58;100840.81;;;20.63;100.00
54308;BME280;40208;39.778;2.710;2022-09-27T03:57:44;100869.28;;;20.77;100.00
54308;BME280;40208;39.778;2.710;2022-09-27T04:00:30;100869.97;;;20.69;100.00
54308;BME280;40208;39.778;2.710;2022-09-27T04:03:16;100851.78;;;20.50;100.00
54308;BME280;40208;39.778;2.710;2022-09-27T04:06:03;100875.88;;;20.63;100.00
54308;BME280;40208;39.778;2.710;2022-09-27T04:08:48;100858.50;;;20.56;100.00
54308;BME280;40208;39.778;2.710;2022-09-27T04:11:34;100858.69;;;20.64;100.00
54308;BME280;40208;39.778;2.710;2022-09-27T04:14:19;100754.16;;;19.84;100.00
54308;BME280;40208;39.778;2.710;2022-09-27T04:17:04;100866.38;;;20.48;100.00
54308;BME280;40208;39.778;2.710;2022-09-27T04:19:49;100862.69;;;20.49;100.00
54308;BME280;40208;39.778;2.710;2022-09-27T04:22:34;100867.63;;;20.44;100.00
54308;BME280;40208;39.778;2.710;2022-09-27T04:25:19;100862.97;;;20.46;100.00
54308;BME280;40208;39.778;2.710;2022-09-27T04:28:04;100840.22;;;20.39;100.00
54308;BME280;40208;39.778;2.710;2022-09-27T04:30:49;100855.59;;;20.48;100.00
54308;BME280;40208;39.778;2.710;2022-09-27T04:33:34;100854.66;;;20.38;100.00
54308;BME280;40208;39.778;2.710;2022-09-27T04:36:21;100844.47;;;20.41;100.00
54308;BME280;40208;39.778;2.710;2022-09-27T04:39:12;100848.28;;;20.39;100.00
54308;BME280;40208;39.778;2.710;2022-09-27T04:41:58;100846.31;;;20.41;100.00
54308;BME280;40208;39.778;2.710;2022-09-27T04:44:43;100694.56;;;19.45;100.00
54308;BME280;40208;39.778;2.710;2022-09-27T04:47:28;100827.97;;;20.34;100.00
54308;BME280;40208;39.778;2.710;2022-09-27T04:50:14;100840.00;;;20.30;100.00
54308;BME280;40208;39.778;2.710;2022-09-27T04:52:59;100745.00;;;19.75;100.00
54308;BME280;40208;39.778;2.710;2022-09-27T04:55:45;100830.47;;;20.26;100.00
54308;BME280;40208;39.778;2.710;2022-09-27T04:58:32;100823.34;;;20.25;100.00
54308;BME280;40208;39.778;2.710;2022-09-27T05:01:17;100842.44;;;20.33;100.00
54308;BME280;40208;39.778;2.710;2022-09-27T05:04:02;100845.31;;;20.42;100.00
54308;BME280;40208;39.778;2.710;2022-09-27T05:06:47;100807.97;;;20.16;100.00
54308;BME280;40208;39.778;2.710;2022-09-27T05:09:32;100834.53;;;20.42;100.00
54308;BME280;40208;39.778;2.710;2022-09-27T05:12:18;100837.19;;;20.53;100.00
54308;BME280;40208;39.778;2.710;2022-09-27T05:15:04;100818.88;;;20.36;100.00
54308;BME280;40208;39.778;2.710;2022-09-27T05:17:50;100858.53;;;20.45;100.00
54308;BME280;40208;39.778;2.710;2022-09-27T05:20:36;100862.06;;;20.57;100.00
54308;BME280;40208;39.778;2.710;2022-09-27T05:23:21;100748.84;;;19.94;100.00
54308;BME280;40208;39.778;2.710;2022-09-27T05:26:06;100868.16;;;20.59;100.00
54308;BME280;40208;39.778;2.710;2022-09-27T05:28:51;100871.00;;;20.57;100.00
54308;BME280;40208;39.778;2.710;2022-09-27T05:31:36;100849.94;;;20.51;100.00
54308;BME280;40208;39.778;2.710;2022-09-27T05:34:21;100871.88;;;20.58;100.00
54308;BME280;40208;39.778;2.710;2022-09-27T05:37:06;100864.66;;;20.47;100.00
54308;BME280;40208;39.778;2.710;2022-09-27T05:39:51;100873.44;;;20.60;100.00
54308;BME280;40208;39.778;2.710;2022-09-27T05:42:37;100866.69;;;20.54;100.00
54308;BME280;40208;39.778;2.710;2022-09-27T05:45:24;100868.94;;;20.49;100.00
54308;BME280;40208;39.778;2.710;2022-09-27T05:48:09;100842.94;;;20.27;100.00
54308;BME280;40208;39.778;2.710;2022-09-27T05:50:56;100834.13;;;20.25;100.00
54308;BME280;40208;39.778;2.710;2022-09-27T05:53:41;100872.41;;;20.40;100.00
54308;BME280;40208;39.778;2.710;2022-09-27T05:56:25;100879.19;;;20.34;100.00
54308;BME280;40208;39.778;2.710;2022-09-27T05:59:10;100891.53;;;20.37;100.00
54308;BME280;40208;39.778;2.710;2022-09-27T06:01:56;100883.47;;;20.37;100.00
54308;BME280;40208;39.778;2.710;2022-09-27T06:04:41;100891.19;;;20.30;100.00
54308;BME280;40208;39.778;2.710;2022-09-27T06:07:26;100887.78;;;20.28;100.00
54308;BME280;40208;39.778;2.710;2022-09-27T06:10:12;100894.16;;;20.27;100.00
54308;BME280;40208;39.778;2.710;2022-09-27T06:13:02;100886.00;;;20.18;100.00
54308;BME280;40208;39.778;2.710;2022-09-27T06:15:47;100891.91;;;20.11;100.00
54308;BME280;40208;39.778;2.710;2022-09-27T06:18:35;100898.41;;;20.09;100.00
54308;BME280;40208;39.778;2.710;2022-09-27T06:21:20;100909.91;;;20.11;100.00
54308;BME280;40208;39.778;2.710;2022-09-27T06:24:05;100903.28;;;20.15;100.00
54308;BME280;40208;39.778;2.710;2022-09-27T06:26:50;100897.28;;;20.11;100.00
54308;BME280;40208;39.778;2.710;2022-09-27T06:29:35;100900.06;;;20.21;100.00
54308;BME280;40208;39.778;2.710;2022-09-27T06:32:21;100881.72;;;20.15;100.00
54308;BME280;40208;39.778;2.710;2022-09-27T06:35:06;100902.06;;;20.40;100.00
54308;BME280;40208;39.778;2.710;2022-09-27T06:37:51;100908.00;;;20.34;100.00
54308;BME280;40208;39.778;2.710;2022-09-27T06:40:36;100908.91;;;20.44;100.00
54308;BME280;40208;39.778;2.710;2022-09-27T06:43:21;100912.34;;;20.46;100.00
54308;BME280;40208;39.778;2.710;2022-09-27T06:46:06;100923.84;;;20.60;100.00
54308;BME280;40208;39.778;2.710;2022-09-27T06:48:51;100904.59;;;20.53;100.00
54308;BME280;40208;39.778;2.710;2022-09-27T06:51:36;100920.25;;;20.59;100.00
54308;BME280;40208;39.778;2.710;2022-09-27T06:54:21;100915.59;;;20.61;100.00
54308;BME280;40208;39.778;2.710;2022-09-27T06:57:06;100919.34;;;20.70;100.00
54308;BME280;40208;39.778;2.710;2022-09-27T06:59:51;100921.72;;;20.63;100.00
54308;BME280;40208;39.778;2.710;2022-09-27T07:02:56;100929.53;;;20.66;100.00
54308;BME280;40208;39.778;2.710;2022-09-27T07:05:54;100927.13;;;20.84;100.00
54308;BME280;40208;39.778;2.710;2022-09-27T07:08:40;100907.63;;;20.81;100.00
54308;BME280;40208;39.778;2.710;2022-09-27T07:11:25;100935.53;;;20.91;100.00
54308;BME280;40208;39.778;2.710;2022-09-27T07:14:10;100947.19;;;20.91;100.00
54308;BME280;40208;39.778;2.710;2022-09-27T07:16:55;100936.00;;;20.96;100.00
54308;BME280;40208;39.778;2.710;2022-09-27T07:19:40;100884.75;;;20.75;100.00
54308;BME280;40208;39.778;2.710;2022-09-27T07:22:25;100929.19;;;21.02;100.00
54308;BME280;40208;39.778;2.710;2022-09-27T07:25:11;100931.50;;;21.06;100.00
54308;BME280;40208;39.778;2.710;2022-09-27T07:28:00;100935.19;;;21.05;100.00
54308;BME280;40208;39.778;2.710;2022-09-27T07:30:45;100927.50;;;21.01;100.00
54308;BME280;40208;39.778;2.710;2022-09-27T07:33:31;100816.91;;;20.38;100.00
54308;BME280;40208;39.778;2.710;2022-09-27T07:36:16;100939.53;;;21.17;100.00
54308;BME280;40208;39.778;2.710;2022-09-27T07:39:01;100940.97;;;21.22;100.00
54308;BME280;40208;39.778;2.710;2022-09-27T07:41:45;100935.97;;;21.17;100.00
54308;BME280;40208;39.778;2.710;2022-09-27T07:44:30;100931.47;;;21.27;100.00
54308;BME280;40208;39.778;2.710;2022-09-27T07:47:15;100908.97;;;21.17;100.00
54308;BME280;40208;39.778;2.710;2022-09-27T07:50:05;100800.28;;;20.53;100.00
54308;BME280;40208;39.778;2.710;2022-09-27T07:52:51;100938.81;;;21.46;100.00
54308;BME280;40208;39.778;2.710;2022-09-27T07:55:36;100927.50;;;21.52;100.00
54308;BME280;40208;39.778;2.710;2022-09-27T07:58:21;100905.56;;;21.46;100.00
54308;BME280;40208;39.778;2.710;2022-09-27T08:01:06;100927.25;;;21.65;100.00
54308;BME280;40208;39.778;2.710;2022-09-27T08:03:50;100922.16;;;21.72;100.00
54308;BME280;40208;39.778;2.710;2022-09-27T08:06:35;100934.22;;;21.68;100.00
54308;BME280;40208;39.778;2.710;2022-09-27T08:09:20;100914.28;;;21.59;100.00
54308;BME280;40208;39.778;2.710;2022-09-27T08:12:05;100920.69;;;21.68;100.00
54308;BME280;40208;39.778;2.710;2022-09-27T08:14:50;100919.59;;;21.80;100.00
54308;BME280;40208;39.778;2.710;2022-09-27T08:17:35;100925.00;;;21.90;100.00
54308;BME280;40208;39.778;2.710;2022-09-27T08:20:20;100938.41;;;21.91;100.00
54308;BME280;40208;39.778;2.710;2022-09-27T08:23:06;100941.09;;;21.91;100.00
54308;BME280;40208;39.778;2.710;2022-09-27T08:25:54;100927.44;;;21.83;100.00
54308;BME280;40208;39.778;2.710;2022-09-27T08:28:41;100942.94;;;21.91;100.00
54308;BME280;40208;39.778;2.710;2022-09-27T08:31:26;100913.63;;;21.76;100.00
54308;BME280;40208;39.778;2.710;2022-09-27T08:34:10;100896.94;;;21.62;100.00
54308;BME280;40208;39.778;2.710;2022-09-27T08:36:55;100888.97;;;21.60;100.00
54308;BME280;40208;39.778;2.710;2022-09-27T08:39:40;100928.28;;;21.84;100.00
54308;BME280;40208;39.778;2.710;2022-09-27T08:42:33;100940.56;;;21.97;100.00
54308;BME280;40208;39.778;2.710;2022-09-27T08:45:31;100930.03;;;22.14;100.00
54308;BME280;40208;39.778;2.710;2022-09-27T08:48:18;100926.09;;;22.28;100.00
54308;BME280;40208;39.778;2.710;2022-09-27T08:51:04;100934.34;;;22.65;100.00
54308;BME280;40208;39.778;2.710;2022-09-27T08:53:56;100911.13;;;22.72;100.00
54308;BME280;40208;39.778;2.710;2022-09-27T08:56:41;100942.72;;;23.01;100.00
54308;BME280;40208;39.778;2.710;2022-09-27T08:59:27;100945.81;;;23.06;98.49
54308;BME280;40208;39.778;2.710;2022-09-27T09:02:18;100935.00;;;23.06;98.09
54308;BME280;40208;39.778;2.710;2022-09-27T09:05:06;100900.69;;;22.87;97.16
54308;BME280;40208;39.778;2.710;2022-09-27T09:11:57;100958.38;;;23.07;99.91
54308;BME280;40208;39.778;2.710;2022-09-27T09:15:07;100953.09;;;23.05;100.00
54308;BME280;40208;39.778;2.710;2022-09-27T09:24:08;100874.56;;;22.49;100.00
54308;BME280;40208;39.778;2.710;2022-09-27T09:39:23;100987.72;;;23.12;100.00
54308;BME280;40208;39.778;2.710;2022-09-27T09:42:24;100986.56;;;23.14;100.00
54308;BME280;40208;39.778;2.710;2022-09-27T09:45:24;101000.69;;;23.08;100.00
54308;BME280;40208;39.778;2.710;2022-09-27T09:48:48;100997.97;;;23.08;100.00
54308;BME280;40208;39.778;2.710;2022-09-27T09:51:46;100994.16;;;23.01;100.00
54308;BME280;40208;39.778;2.710;2022-09-27T09:54:41;101006.22;;;22.97;100.00
54308;BME280;40208;39.778;2.710;2022-09-27T10:00:50;101012.22;;;22.91;100.00
54308;BME280;40208;39.778;2.710;2022-09-27T10:03:35;101001.69;;;22.88;100.00
54308;BME280;40208;39.778;2.710;2022-09-27T10:06:20;101014.81;;;22.92;100.00
54308;BME280;40208;39.778;2.710;2022-09-27T10:09:10;100882.38;;;22.13;100.00
54308;BME280;40208;39.778;2.710;2022-09-27T10:11:55;100997.25;;;22.86;100.00
54308;BME280;40208;39.778;2.710;2022-09-27T10:14:41;100994.84;;;22.83;100.00
54308;BME280;40208;39.778;2.710;2022-09-27T10:17:41;100996.84;;;22.81;100.00
54308;BME280;40208;39.778;2.710;2022-09-27T10:23:21;100992.69;;;22.87;100.00
54308;BME280;40208;39.778;2.710;2022-09-27T10:26:09;100997.25;;;22.86;100.00
54308;BME280;40208;39.778;2.710;2022-09-27T10:28:54;100989.03;;;22.78;100.00
54308;BME280;40208;39.778;2.710;2022-09-27T10:31:39;100962.97;;;22.58;100.00
54308;BME280;40208;39.778;2.710;2022-09-27T10:34:32;100955.00;;;22.66;100.00
54308;BME280;40208;39.778;2.710;2022-09-27T10:37:21;100984.47;;;22.79;100.00
54308;BME280;40208;39.778;2.710;2022-09-27T10:40:25;100986.88;;;22.72;100.00
54308;BME280;40208;39.778;2.710;2022-09-27T10:46:29;100970.94;;;22.79;100.00
54308;BME280;40208;39.778;2.710;2022-09-27T10:49:29;100979.03;;;22.89;100.00
54308;BME280;40208;39.778;2.710;2022-09-27T10:52:18;100982.16;;;22.94;100.00
54308;BME280;40208;39.778;2.710;2022-09-27T10:55:20;100975.19;;;23.01;100.00
54308;BME280;40208;39.778;2.710;2022-09-27T10:58:19;100979.19;;;23.06;100.00
54308;BME280;40208;39.778;2.710;2022-09-27T11:01:09;100961.38;;;23.14;100.00
54308;BME280;40208;39.778;2.710;2022-09-27T11:03:58;100969.47;;;23.23;100.00
54308;BME280;40208;39.778;2.710;2022-09-27T11:06:43;100970.00;;;23.27;100.00
54308;BME280;40208;39.778;2.710;2022-09-27T11:09:28;100966.13;;;23.29;100.00
54308;BME280;40208;39.778;2.710;2022-09-27T11:12:14;100967.69;;;23.32;100.00
54308;BME280;40208;39.778;2.710;2022-09-27T11:15:02;100955.28;;;23.39;100.00
54308;BME280;40208;39.778;2.710;2022-09-27T11:17:59;100944.00;;;23.44;100.00
54308;BME280;40208;39.778;2.710;2022-09-27T11:20:59;100946.88;;;23.42;100.00
54308;BME280;40208;39.778;2.710;2022-09-27T11:23:59;100939.72;;;23.41;100.00
54308;BME280;40208;39.778;2.710;2022-09-27T11:30:06;100945.19;;;23.32;100.00
54308;BME280;40208;39.778;2.710;2022-09-27T11:57:18;100922.66;;;23.31;100.00
54308;BME280;40208;39.778;2.710;2022-09-27T12:00:22;100917.78;;;23.35;100.00
54308;BME280;40208;39.778;2.710;2022-09-27T12:06:24;100914.84;;;23.28;100.00
54308;BME280;40208;39.778;2.710;2022-09-27T12:09:22;100906.91;;;23.17;100.00
54308;BME280;40208;39.778;2.710;2022-09-27T12:12:14;100878.53;;;23.11;100.00
54308;BME280;40208;39.778;2.710;2022-09-27T12:15:04;100907.75;;;23.17;100.00
54308;BME280;40208;39.778;2.710;2022-09-27T12:17:53;100911.16;;;23.19;100.00
54308;BME280;40208;39.778;2.710;2022-09-27T12:20:41;100881.03;;;22.95;100.00
54308;BME280;40208;39.778;2.710;2022-09-27T12:23:53;100891.53;;;23.07;100.00
54308;BME280;40208;39.778;2.710;2022-09-27T12:26:42;100857.81;;;22.82;100.00
54308;BME280;40208;39.778;2.710;2022-09-27T12:29:38;100897.66;;;23.10;100.00
54308;BME280;40208;39.778;2.710;2022-09-27T12:32:31;100868.16;;;22.97;100.00
54308;BME280;40208;39.778;2.710;2022-09-27T12:35:26;100896.38;;;23.14;100.00
54308;BME280;40208;39.778;2.710;2022-09-27T12:38:18;100903.59;;;23.23;100.00
54308;BME280;40208;39.778;2.710;2022-09-27T12:41:07;100890.31;;;23.29;100.00
54308;BME280;40208;39.778;2.710;2022-09-27T12:43:54;100893.59;;;23.33;100.00
54308;BME280;40208;39.778;2.710;2022-09-27T12:49:42;100888.72;;;23.37;100.00
54308;BME280;40208;39.778;2.710;2022-09-27T12:52:35;100878.75;;;23.27;100.00
54308;BME280;40208;39.778;2.710;2022-09-27T13:12:50;100852.91;;;23.43;100.00
54308;BME280;40208;39.778;2.710;2022-09-27T13:15:38;100874.91;;;23.58;100.00
54308;BME280;40208;39.778;2.710;2022-09-27T13:42:07;100868.56;;;23.95;100.00
54308;BME280;40208;39.778;2.710;2022-09-27T13:45:17;100890.34;;;24.03;100.00
54308;BME280;40208;39.778;2.710;2022-09-27T13:48:12;100882.34;;;24.01;99.24
54308;BME280;40208;39.778;2.710;2022-09-27T13:51:02;100892.28;;;24.10;99.50
54308;BME280;40208;39.778;2.710;2022-09-27T13:53:57;100885.16;;;24.09;99.01
54308;BME280;40208;39.778;2.710;2022-09-27T13:59:45;100899.09;;;24.15;99.43
54308;BME280;40208;39.778;2.710;2022-09-27T14:02:54;100894.97;;;24.10;100.00
54308;BME280;40208;39.778;2.710;2022-09-27T14:05:40;100901.09;;;24.12;97.19
54308;BME280;40208;39.778;2.710;2022-09-27T14:08:50;100880.06;;;24.06;98.69
54308;BME280;40208;39.778;2.710;2022-09-27T14:11:38;100901.81;;;24.15;98.11
54308;BME280;40208;39.778;2.710;2022-09-27T14:14:27;100881.13;;;24.13;98.69
54308;BME280;40208;39.778;2.710;2022-09-27T14:17:13;100898.00;;;24.07;99.07
54308;BME280;40208;39.778;2.710;2022-09-27T14:19:58;100899.03;;;24.06;97.09
54308;BME280;40208;39.778;2.710;2022-09-27T14:22:52;100884.38;;;23.99;97.55
54308;BME280;40208;39.778;2.710;2022-09-27T14:25:43;100913.28;;;24.08;99.18
54308;BME280;40208;39.778;2.710;2022-09-27T14:28:30;100905.53;;;24.13;98.73
54308;BME280;40208;39.778;2.710;2022-09-27T14:31:20;100898.50;;;24.21;99.76
54308;BME280;40208;39.778;2.710;2022-09-27T14:34:07;100887.41;;;24.14;99.37
54308;BME280;40208;39.778;2.710;2022-09-27T14:36:52;100888.03;;;24.26;99.18
54308;BME280;40208;39.778;2.710;2022-09-27T14:40:06;100897.25;;;24.33;97.22
54308;BME280;40208;39.778;2.710;2022-09-27T14:43:02;100896.06;;;24.36;95.48
54308;BME280;40208;39.778;2.710;2022-09-27T14:45:49;100895.06;;;24.37;95.35
54308;BME280;40208;39.778;2.710;2022-09-27T14:48:37;100886.63;;;24.40;94.64
54308;BME280;40208;39.778;2.710;2022-09-27T14:51:30;100888.16;;;24.42;94.59
54308;BME280;40208;39.778;2.710;2022-09-27T14:54:20;100873.91;;;24.40;95.82
54308;BME280;40208;39.778;2.710;2022-09-27T14:57:06;100876.63;;;24.40;97.67
54308;BME280;40208;39.778;2.710;2022-09-27T14:59:51;100882.31;;;24.47;96.38
54308;BME280;40208;39.778;2.710;2022-09-27T15:02:39;100883.44;;;24.44;94.93
54308;BME280;40208;39.778;2.710;2022-09-27T15:05:27;100880.88;;;24.43;96.82
54308;BME280;40208;39.778;2.710;2022-09-27T15:08:13;100882.13;;;24.48;97.00
54308;BME280;40208;39.778;2.710;2022-09-27T15:11:00;100871.03;;;24.42;94.87
54308;BME280;40208;39.778;2.710;2022-09-27T15:13:50;100887.00;;;24.45;94.93
54308;BME280;40208;39.778;2.710;2022-09-27T15:16:36;100870.16;;;24.41;94.74
54308;BME280;40208;39.778;2.710;2022-09-27T15:19:28;100868.78;;;24.37;95.55
54308;BME280;40208;39.778;2.710;2022-09-27T15:22:28;100877.59;;;24.39;95.78
54308;BME280;40208;39.778;2.710;2022-09-27T15:25:40;100875.22;;;24.36;96.73
54308;BME280;40208;39.778;2.710;2022-09-27T15:28:26;100876.06;;;24.37;94.50
54308;BME280;40208;39.778;2.710;2022-09-27T15:31:12;100875.53;;;24.33;95.13
54308;BME280;40208;39.778;2.710;2022-09-27T15:33:57;100876.16;;;24.27;95.88
54308;BME280;40208;39.778;2.710;2022-09-27T15:39:36;100891.91;;;24.23;96.41
54308;BME280;40208;39.778;2.710;2022-09-27T15:42:21;100892.38;;;24.19;98.21
54308;BME280;40208;39.778;2.710;2022-09-27T15:45:26;100883.06;;;24.21;97.29
54308;BME280;40208;39.778;2.710;2022-09-27T15:48:17;100885.31;;;24.26;95.44
54308;BME280;40208;39.778;2.710;2022-09-27T15:51:41;100887.63;;;24.21;95.59
54308;BME280;40208;39.778;2.710;2022-09-27T15:54:29;100891.81;;;24.15;95.68
54308;BME280;40208;39.778;2.710;2022-09-27T15:57:15;100903.81;;;24.12;96.23
54308;BME280;40208;39.778;2.710;2022-09-27T16:00:00;100901.28;;;24.11;96.66
54308;BME280;40208;39.778;2.710;2022-09-27T16:02:47;100901.56;;;24.08;99.07
54308;BME280;40208;39.778;2.710;2022-09-27T16:05:31;100910.56;;;24.08;99.27
54308;BME280;40208;39.778;2.710;2022-09-27T16:08:17;100914.28;;;24.07;98.15
54308;BME280;40208;39.778;2.710;2022-09-27T16:11:01;100913.28;;;24.08;98.63
54308;BME280;40208;39.778;2.710;2022-09-27T16:13:48;100920.56;;;24.08;99.07
54308;BME280;40208;39.778;2.710;2022-09-27T16:16:34;100890.16;;;23.86;100.00
54308;BME280;40208;39.778;2.710;2022-09-27T16:19:19;100915.13;;;24.08;100.00
54308;BME280;40208;39.778;2.710;2022-09-27T16:22:03;100911.50;;;23.99;100.00
54308;BME280;40208;39.778;2.710;2022-09-27T16:24:48;100922.09;;;23.92;100.00
54308;BME280;40208;39.778;2.710;2022-09-27T16:27:34;100925.34;;;23.96;100.00
54308;BME280;40208;39.778;2.710;2022-09-27T16:30:19;100928.50;;;23.91;100.00
54308;BME280;40208;39.778;2.710;2022-09-27T16:33:04;100934.69;;;23.84;100.00
54308;BME280;40208;39.778;2.710;2022-09-27T16:35:49;100930.56;;;23.80;100.00
54308;BME280;40208;39.778;2.710;2022-09-27T16:38:35;100930.59;;;23.70;100.00
54308;BME280;40208;39.778;2.710;2022-09-27T16:41:21;100946.00;;;23.69;100.00
54308;BME280;40208;39.778;2.710;2022-09-27T16:44:07;100914.13;;;23.54;100.00
54308;BME280;40208;39.778;2.710;2022-09-27T16:46:52;100938.50;;;23.63;100.00
54308;BME280;40208;39.778;2.710;2022-09-27T16:49:37;100930.41;;;23.54;100.00
54308;BME280;40208;39.778;2.710;2022-09-27T16:52:40;100926.84;;;23.53;100.00
54308;BME280;40208;39.778;2.710;2022-09-27T16:55:27;100923.59;;;23.49;100.00
54308;BME280;40208;39.778;2.710;2022-09-27T16:58:12;100915.09;;;23.35;100.00
54308;BME280;40208;39.778;2.710;2022-09-27T17:00:58;100928.63;;;23.35;100.00
54308;BME280;40208;39.778;2.710;2022-09-27T17:03:47;100902.03;;;23.20;100.00
54308;BME280;40208;39.778;2.710;2022-09-27T17:06:33;100921.88;;;23.21;100.00